Aérodrome :
LOGIN :

S'inscrire | Disclaimer

   EN    FR    IT 

 










Légende :    VFR   VFR Marginal   IFR   IFR Intensif   IFR Très Intensif
Visi : 
Plafond : 
>= 8 km
>= 3000ft
5 à 8 km
1000 à 3000 ft
1500m à 5 km
500 à 1000 ft
800 à 1500m
200 à 500 ft
< 800m
< 200 ft
Symboles :   Orages  Brouillard  Fortes neiges  Fortes précipitations  Vent > 20 kt
SIGMETs :   Divers  Orages  Givrage  Turbulence  Onde Orograph.  Cendres Volcan.






- Altitude de l'aérodrome : 776 ft
- Code IATA : RMS


ETAR - Ramstein Air Base

DERNIER METAR :
  • 260556Z 00000KT 9999 OVC010 10/10 A3017 RMK AO2A RAE05RAB05E05RAB08E19RAB19E19 SLP224 P0000 60000 T01040104 10112 20102 $

METARs EXPIRÉS :
  • 260529Z 26003KT 9999 BKN010 10/10 A3017 RMK AO2A RAE05RAB05E05RAB08E19RAB19E19 CIG 010V015 BKN V SCT SLP225 $
  • 260519Z 25005KT 9999 SCT012 10/10 A3017 RMK AO2A RAE05RAB05E05RAB08E19RAB19 SLP224 $
  • 260508Z 25003KT 9999 -RA BKN014 BKN060 11/11 A3016 RMK AO2A RAE05RAB05E05RAB08 BKN014 V OVC CIG 013 RWY08 SLP219 $
  • 260456Z 23004KT 9999 -RA OVC014 11/11 A3016 RMK AO2A RAB55 CIG 013 RWY08 SLP219 P0000 T01080108 $
  • 260441Z 00000KT 9999 BKN014 OVC019 11/11 A3016 RMK AO2A SLP219 $
  • 260421Z 22004KT 9999 BKN019 BKN060 11/11 A3016 RMK AO2A CIG 019V100 BKN019 V SCT CIG 018 RWY08 SLP217 $
  • 260356Z 23003KT 9999 SCT019 BKN100 11/11 A3015 RMK AO2A SLP213 T01080108 $

TAF TAF ETAR
Valide du 26 à 02h jusqu'au 27 à 08h UTC


260200Z 2602/2708 23006KT 9999 BKN020 QNH3013INS
TEMPO 2602/2605 BKN007
BECMG 2604/2605 21006KT 9999 BKN015 QNH3017INS
BECMG 2609/2610 25009KT 9999 BKN020 QNH3019INS
BECMG 2611/2612 25010G15KT 9999 SCT020 QNH3017INS
BECMG 2617/2618 24009KT 9999 SCT020 QNH3000INS
BECMG 2621/2622 21006KT 9999 SCT040 QNH3000INS
BECMG 2701/2702 22004KT 9999 BKN020 QNH3028INS TX15/2614Z TN07/2605Z



MET'MAP, la Météo Aéronautique d'un coup d'oeil ! - Copyright ORBIFLY Décembre 2007 - Disclaimer

ORBIFLY MET'MAP TEAM :

Programmation & Développement : Alexandra Zaïnal
Sur une idée originale de : Baudouin d'Aumeries
Assistance à la programmation : Marc-Olivier Méhu
Soutien technique & logistique : Manuel Goepfert

Contact : metmap@orbifly.com




SOURCES & CREDITS :

   NOAA